sensor_id;sensor_type;location;lat;lon;timestamp;pressure;altitude;pressure_sealevel;temperature;humidity
55576;BME280;41437;45.478;9.116;2022-07-12T00:02:53;100084.41;;;30.84;36.63
55576;BME280;41437;45.478;9.116;2022-07-12T00:05:55;100089.28;;;30.83;36.73
55576;BME280;41437;45.478;9.116;2022-07-12T00:08:57;100097.38;;;30.81;36.54
55576;BME280;41437;45.478;9.116;2022-07-12T00:11:58;100095.75;;;30.80;36.80
55576;BME280;41437;45.478;9.116;2022-07-12T00:15:01;100092.47;;;30.78;36.66
55576;BME280;41437;45.478;9.116;2022-07-12T00:18:03;100097.75;;;30.76;36.83
55576;BME280;41437;45.478;9.116;2022-07-12T00:21:04;100093.28;;;30.75;36.82
55576;BME280;41437;45.478;9.116;2022-07-12T00:24:07;100098.88;;;30.71;36.64
55576;BME280;41437;45.478;9.116;2022-07-12T00:27:08;100090.75;;;30.70;36.67
55576;BME280;41437;45.478;9.116;2022-07-12T00:30:12;100094.78;;;30.69;36.70
55576;BME280;41437;45.478;9.116;2022-07-12T00:33:13;100098.44;;;30.66;36.77
55576;BME280;41437;45.478;9.116;2022-07-12T00:36:15;100099.63;;;30.65;36.64
55576;BME280;41437;45.478;9.116;2022-07-12T00:39:16;100089.47;;;30.64;36.69
55576;BME280;41437;45.478;9.116;2022-07-12T00:42:18;100099.59;;;30.61;36.62
55576;BME280;41437;45.478;9.116;2022-07-12T00:45:21;100094.28;;;30.60;36.87
55576;BME280;41437;45.478;9.116;2022-07-12T00:48:22;100092.66;;;30.59;36.75
55576;BME280;41437;45.478;9.116;2022-07-12T00:51:24;100093.06;;;30.57;36.66
55576;BME280;41437;45.478;9.116;2022-07-12T00:54:26;100094.66;;;30.54;36.81
55576;BME280;41437;45.478;9.116;2022-07-12T00:57:28;100094.22;;;30.52;36.70
55576;BME280;41437;45.478;9.116;2022-07-12T01:00:31;100096.25;;;30.52;36.77
55576;BME280;41437;45.478;9.116;2022-07-12T01:03:32;100089.31;;;30.49;36.93
55576;BME280;41437;45.478;9.116;2022-07-12T01:06:34;100089.72;;;30.48;36.86
55576;BME280;41437;45.478;9.116;2022-07-12T01:09:37;100092.94;;;30.46;36.87
55576;BME280;41437;45.478;9.116;2022-07-12T01:12:39;100094.53;;;30.44;36.67
55576;BME280;41437;45.478;9.116;2022-07-12T01:15:42;100096.94;;;30.42;36.57
55576;BME280;41437;45.478;9.116;2022-07-12T01:18:43;100097.34;;;30.40;36.78
55576;BME280;41437;45.478;9.116;2022-07-12T01:21:45;100100.97;;;30.37;36.74
55576;BME280;41437;45.478;9.116;2022-07-12T01:24:50;100097.69;;;30.35;36.70
55576;BME280;41437;45.478;9.116;2022-07-12T01:27:51;100100.91;;;30.34;36.77
55576;BME280;41437;45.478;9.116;2022-07-12T01:30:53;100104.97;;;30.33;36.44
55576;BME280;41437;45.478;9.116;2022-07-12T01:33:55;100103.72;;;30.30;36.36
55576;BME280;41437;45.478;9.116;2022-07-12T01:36:56;100112.22;;;30.26;36.32
55576;BME280;41437;45.478;9.116;2022-07-12T01:40:00;100114.25;;;30.26;36.31
55576;BME280;41437;45.478;9.116;2022-07-12T01:43:02;100110.97;;;30.24;36.28
55576;BME280;41437;45.478;9.116;2022-07-12T01:46:04;100114.19;;;30.22;36.27
55576;BME280;41437;45.478;9.116;2022-07-12T01:49:05;100121.91;;;30.22;36.29
55576;BME280;41437;45.478;9.116;2022-07-12T01:52:07;100105.63;;;30.19;36.47
55576;BME280;41437;45.478;9.116;2022-07-12T01:55:11;100108.00;;;30.17;36.33
55576;BME280;41437;45.478;9.116;2022-07-12T01:58:12;100112.06;;;30.16;36.12
55576;BME280;41437;45.478;9.116;2022-07-12T02:01:14;100107.97;;;30.13;36.25
55576;BME280;41437;45.478;9.116;2022-07-12T02:04:16;100102.66;;;30.12;36.11
55576;BME280;41437;45.478;9.116;2022-07-12T02:07:18;100109.53;;;30.11;36.26
55576;BME280;41437;45.478;9.116;2022-07-12T02:10:21;100100.59;;;30.09;36.15
55576;BME280;41437;45.478;9.116;2022-07-12T02:13:22;100102.19;;;30.06;36.16
55576;BME280;41437;45.478;9.116;2022-07-12T02:16:24;100100.56;;;30.05;36.05
55576;BME280;41437;45.478;9.116;2022-07-12T02:19:25;100091.97;;;30.01;36.27
55576;BME280;41437;45.478;9.116;2022-07-12T02:22:27;100108.22;;;30.01;36.24
55576;BME280;41437;45.478;9.116;2022-07-12T02:25:30;100105.72;;;29.99;36.22
55576;BME280;41437;45.478;9.116;2022-07-12T02:28:31;100108.16;;;29.97;36.08
55576;BME280;41437;45.478;9.116;2022-07-12T02:31:33;100109.38;;;29.96;36.28
55576;BME280;41437;45.478;9.116;2022-07-12T02:34:34;100108.56;;;29.96;36.06
55576;BME280;41437;45.478;9.116;2022-07-12T02:37:36;100110.13;;;29.93;36.34
55576;BME280;41437;45.478;9.116;2022-07-12T02:40:38;100121.50;;;29.93;36.03
55576;BME280;41437;45.478;9.116;2022-07-12T02:43:55;100132.44;;;29.91;36.06
55576;BME280;41437;45.478;9.116;2022-07-12T02:46:56;100123.91;;;29.91;36.23
55576;BME280;41437;45.478;9.116;2022-07-12T02:49:58;100116.56;;;29.90;36.22
55576;BME280;41437;45.478;9.116;2022-07-12T02:53:00;100128.72;;;29.87;36.19
55576;BME280;41437;45.478;9.116;2022-07-12T02:56:03;100127.06;;;29.86;36.23
55576;BME280;41437;45.478;9.116;2022-07-12T02:59:04;100132.34;;;29.84;36.09
55576;BME280;41437;45.478;9.116;2022-07-12T03:02:06;100133.53;;;29.83;36.28
55576;BME280;41437;45.478;9.116;2022-07-12T03:05:07;100143.25;;;29.82;35.91
55576;BME280;41437;45.478;9.116;2022-07-12T03:08:09;100137.13;;;29.80;36.21
55576;BME280;41437;45.478;9.116;2022-07-12T03:11:13;100136.72;;;29.78;36.10
55576;BME280;41437;45.478;9.116;2022-07-12T03:14:14;100140.75;;;29.77;36.22
55576;BME280;41437;45.478;9.116;2022-07-12T03:17:16;100145.19;;;29.74;36.18
55576;BME280;41437;45.478;9.116;2022-07-12T03:20:17;100141.53;;;29.74;36.09
55576;BME280;41437;45.478;9.116;2022-07-12T03:23:19;100145.53;;;29.73;36.13
55576;BME280;41437;45.478;9.116;2022-07-12T03:26:21;100142.28;;;29.71;36.09
55576;BME280;41437;45.478;9.116;2022-07-12T03:29:23;100134.97;;;29.70;36.22
55576;BME280;41437;45.478;9.116;2022-07-12T03:32:24;100142.69;;;29.69;36.09
55576;BME280;41437;45.478;9.116;2022-07-12T03:35:26;100141.41;;;29.67;36.13
55576;BME280;41437;45.478;9.116;2022-07-12T03:38:27;100140.59;;;29.66;36.15
55576;BME280;41437;45.478;9.116;2022-07-12T03:41:30;100146.63;;;29.65;35.96
55576;BME280;41437;45.478;9.116;2022-07-12T03:44:32;100152.72;;;29.63;36.26
55576;BME280;41437;45.478;9.116;2022-07-12T03:47:33;100154.31;;;29.61;36.08
55576;BME280;41437;45.478;9.116;2022-07-12T03:50:36;100154.31;;;29.61;36.16
55576;BME280;41437;45.478;9.116;2022-07-12T03:53:37;100156.69;;;29.59;36.07
55576;BME280;41437;45.478;9.116;2022-07-12T03:56:40;100160.75;;;29.58;35.99
55576;BME280;41437;45.478;9.116;2022-07-12T03:59:59;100157.47;;;29.55;36.26
55576;BME280;41437;45.478;9.116;2022-07-12T04:03:00;100158.63;;;29.54;36.17
55576;BME280;41437;45.478;9.116;2022-07-12T04:06:02;100149.31;;;29.54;35.87
55576;BME280;41437;45.478;9.116;2022-07-12T04:09:03;100146.41;;;29.50;35.80
55576;BME280;41437;45.478;9.116;2022-07-12T04:12:07;100147.59;;;29.49;36.11
55576;BME280;41437;45.478;9.116;2022-07-12T04:15:08;100152.47;;;29.49;36.09
55576;BME280;41437;45.478;9.116;2022-07-12T04:18:10;100166.22;;;29.47;36.10
55576;BME280;41437;45.478;9.116;2022-07-12T04:21:11;100168.22;;;29.46;36.19
55576;BME280;41437;45.478;9.116;2022-07-12T04:24:13;100171.06;;;29.46;36.12
55576;BME280;41437;45.478;9.116;2022-07-12T04:27:16;100172.28;;;29.45;35.96
55576;BME280;41437;45.478;9.116;2022-07-12T04:30:17;100167.81;;;29.44;36.08
55576;BME280;41437;45.478;9.116;2022-07-12T04:33:19;100177.53;;;29.43;36.00
55576;BME280;41437;45.478;9.116;2022-07-12T04:36:20;100178.28;;;29.40;36.27
55576;BME280;41437;45.478;9.116;2022-07-12T04:39:22;100183.97;;;29.40;35.94
55576;BME280;41437;45.478;9.116;2022-07-12T04:42:25;100171.78;;;29.40;35.97
55576;BME280;41437;45.478;9.116;2022-07-12T04:45:26;100171.78;;;29.40;36.08
55576;BME280;41437;45.478;9.116;2022-07-12T04:48:28;100167.69;;;29.37;36.05
55576;BME280;41437;45.478;9.116;2022-07-12T04:51:29;100195.25;;;29.37;36.25
55576;BME280;41437;45.478;9.116;2022-07-12T04:54:31;100188.75;;;29.36;35.88
55576;BME280;41437;45.478;9.116;2022-07-12T04:57:33;100203.34;;;29.35;36.06
55576;BME280;41437;45.478;9.116;2022-07-12T05:00:35;100191.97;;;29.35;36.14
55576;BME280;41437;45.478;9.116;2022-07-12T05:03:36;100200.84;;;29.33;36.05
55576;BME280;41437;45.478;9.116;2022-07-12T05:06:38;100202.88;;;29.33;36.17
55576;BME280;41437;45.478;9.116;2022-07-12T05:09:39;100191.91;;;29.31;36.27
55576;BME280;41437;45.478;9.116;2022-07-12T05:12:42;100197.59;;;29.31;36.08
55576;BME280;41437;45.478;9.116;2022-07-12T05:15:43;100198.81;;;29.30;36.14
55576;BME280;41437;45.478;9.116;2022-07-12T05:18:45;100203.63;;;29.29;35.99
55576;BME280;41437;45.478;9.116;2022-07-12T05:21:46;100197.53;;;29.27;36.12
55576;BME280;41437;45.478;9.116;2022-07-12T05:24:48;100198.34;;;29.28;36.09
55576;BME280;41437;45.478;9.116;2022-07-12T05:27:51;100203.59;;;29.26;35.92
55576;BME280;41437;45.478;9.116;2022-07-12T05:30:52;100201.56;;;29.26;36.15
55576;BME280;41437;45.478;9.116;2022-07-12T05:33:54;100203.59;;;29.26;36.20
55576;BME280;41437;45.478;9.116;2022-07-12T05:36:55;100214.94;;;29.26;36.15
55576;BME280;41437;45.478;9.116;2022-07-12T05:39:57;100216.13;;;29.25;36.24
55576;BME280;41437;45.478;9.116;2022-07-12T05:42:59;100215.31;;;29.24;36.02
55576;BME280;41437;45.478;9.116;2022-07-12T05:46:01;100209.63;;;29.24;36.33
55576;BME280;41437;45.478;9.116;2022-07-12T05:49:02;100207.19;;;29.23;36.30
55576;BME280;41437;45.478;9.116;2022-07-12T05:52:04;100214.88;;;29.22;36.09
55576;BME280;41437;45.478;9.116;2022-07-12T05:55:23;100216.91;;;29.22;36.02
55576;BME280;41437;45.478;9.116;2022-07-12T05:58:26;100212.03;;;29.22;36.16
55576;BME280;41437;45.478;9.116;2022-07-12T06:01:28;100214.06;;;29.22;36.15
55576;BME280;41437;45.478;9.116;2022-07-12T06:04:29;100216.09;;;29.21;36.11
55576;BME280;41437;45.478;9.116;2022-07-12T06:07:30;100207.56;;;29.21;36.08
55576;BME280;41437;45.478;9.116;2022-07-12T06:10:32;100218.91;;;29.21;36.00
55576;BME280;41437;45.478;9.116;2022-07-12T06:13:36;100228.25;;;29.22;36.16
55576;BME280;41437;45.478;9.116;2022-07-12T06:16:37;100237.59;;;29.22;36.10
55576;BME280;41437;45.478;9.116;2022-07-12T06:19:38;100237.94;;;29.21;36.07
55576;BME280;41437;45.478;9.116;2022-07-12T06:22:40;100235.94;;;29.21;36.15
55576;BME280;41437;45.478;9.116;2022-07-12T06:25:41;100253.78;;;29.22;36.28
55576;BME280;41437;45.478;9.116;2022-07-12T06:28:44;100248.13;;;29.22;36.36
55576;BME280;41437;45.478;9.116;2022-07-12T06:31:46;100256.63;;;29.22;36.33
55576;BME280;41437;45.478;9.116;2022-07-12T06:34:47;100253.78;;;29.22;36.32
55576;BME280;41437;45.478;9.116;2022-07-12T06:37:50;100251.78;;;29.22;36.33
55576;BME280;41437;45.478;9.116;2022-07-12T06:40:51;100256.63;;;29.22;36.37
55576;BME280;41437;45.478;9.116;2022-07-12T06:43:54;100264.75;;;29.23;36.38
55576;BME280;41437;45.478;9.116;2022-07-12T06:46:55;100270.44;;;29.23;36.31
55576;BME280;41437;45.478;9.116;2022-07-12T06:49:57;100272.88;;;29.25;36.42
55576;BME280;41437;45.478;9.116;2022-07-12T06:52:58;100265.56;;;29.24;36.36
55576;BME280;41437;45.478;9.116;2022-07-12T06:56:00;100270.03;;;29.25;36.30
55576;BME280;41437;45.478;9.116;2022-07-12T06:59:03;100267.22;;;29.25;36.43
55576;BME280;41437;45.478;9.116;2022-07-12T07:02:05;100268.88;;;29.26;36.32
55576;BME280;41437;45.478;9.116;2022-07-12T07:05:07;100273.34;;;29.27;36.57
55576;BME280;41437;45.478;9.116;2022-07-12T07:08:08;100269.31;;;29.28;36.50
55576;BME280;41437;45.478;9.116;2022-07-12T07:11:10;100279.44;;;29.29;36.78
55576;BME280;41437;45.478;9.116;2022-07-12T07:14:13;100290.81;;;29.29;36.55
55576;BME280;41437;45.478;9.116;2022-07-12T07:17:14;100298.13;;;29.30;36.74
55576;BME280;41437;45.478;9.116;2022-07-12T07:20:17;100293.28;;;29.30;36.74
55576;BME280;41437;45.478;9.116;2022-07-12T07:23:18;100295.72;;;29.32;36.63
55576;BME280;41437;45.478;9.116;2022-07-12T07:26:20;100299.78;;;29.31;36.57
55576;BME280;41437;45.478;9.116;2022-07-12T07:29:23;100298.56;;;29.32;36.77
55576;BME280;41437;45.478;9.116;2022-07-12T07:32:42;100300.19;;;29.33;36.67
55576;BME280;41437;45.478;9.116;2022-07-12T07:35:45;100303.03;;;29.33;36.82
55576;BME280;41437;45.478;9.116;2022-07-12T07:38:46;100302.69;;;29.35;36.79
55576;BME280;41437;45.478;9.116;2022-07-12T07:41:48;100297.44;;;29.37;36.58
55576;BME280;41437;45.478;9.116;2022-07-12T07:44:51;100303.94;;;29.37;36.83
55576;BME280;41437;45.478;9.116;2022-07-12T07:47:52;100290.56;;;29.38;36.65
55576;BME280;41437;45.478;9.116;2022-07-12T07:50:54;100301.56;;;29.39;36.70
55576;BME280;41437;45.478;9.116;2022-07-12T07:53:55;100301.16;;;29.41;36.65
55576;BME280;41437;45.478;9.116;2022-07-12T07:56:57;100289.81;;;29.41;36.72
55576;BME280;41437;45.478;9.116;2022-07-12T07:59:59;100289.41;;;29.42;36.60
55576;BME280;41437;45.478;9.116;2022-07-12T08:03:01;100284.56;;;29.43;36.74
55576;BME280;41437;45.478;9.116;2022-07-12T08:06:02;100289.06;;;29.44;36.74
55576;BME280;41437;45.478;9.116;2022-07-12T08:09:04;100287.03;;;29.44;36.89
55576;BME280;41437;45.478;9.116;2022-07-12T08:12:06;100283.00;;;29.45;37.03
55576;BME280;41437;45.478;9.116;2022-07-12T08:15:10;100291.94;;;29.47;36.97
55576;BME280;41437;45.478;9.116;2022-07-12T08:18:12;100290.75;;;29.48;36.87
55576;BME280;41437;45.478;9.116;2022-07-12T08:21:13;100286.72;;;29.49;37.02
55576;BME280;41437;45.478;9.116;2022-07-12T08:24:14;100299.34;;;29.52;37.02
55576;BME280;41437;45.478;9.116;2022-07-12T08:27:16;100293.28;;;29.53;36.78
55576;BME280;41437;45.478;9.116;2022-07-12T08:30:19;100292.09;;;29.54;37.11
55576;BME280;41437;45.478;9.116;2022-07-12T08:33:21;100303.06;;;29.56;37.18
55576;BME280;41437;45.478;9.116;2022-07-12T08:36:22;100299.06;;;29.57;37.10
55576;BME280;41437;45.478;9.116;2022-07-12T08:39:23;100297.03;;;29.58;37.27
55576;BME280;41437;45.478;9.116;2022-07-12T08:42:25;100288.13;;;29.59;37.18
55576;BME280;41437;45.478;9.116;2022-07-12T08:45:28;100297.47;;;29.60;37.34
55576;BME280;41437;45.478;9.116;2022-07-12T08:48:29;100297.94;;;29.62;37.29
55576;BME280;41437;45.478;9.116;2022-07-12T08:51:31;100292.66;;;29.64;37.23
55576;BME280;41437;45.478;9.116;2022-07-12T08:54:38;100291.47;;;29.65;37.24
55576;BME280;41437;45.478;9.116;2022-07-12T08:57:39;100286.63;;;29.65;37.30
55576;BME280;41437;45.478;9.116;2022-07-12T09:00:42;100282.59;;;29.66;37.49
55576;BME280;41437;45.478;9.116;2022-07-12T09:03:44;100273.69;;;29.68;37.27
55576;BME280;41437;45.478;9.116;2022-07-12T09:06:49;100276.16;;;29.69;37.06
55576;BME280;41437;45.478;9.116;2022-07-12T09:09:51;100281.44;;;29.71;37.22
55576;BME280;41437;45.478;9.116;2022-07-12T09:12:52;100272.53;;;29.72;37.23
55576;BME280;41437;45.478;9.116;2022-07-12T09:15:56;100273.00;;;29.74;37.42
55576;BME280;41437;45.478;9.116;2022-07-12T09:19:13;100268.94;;;29.75;37.37
55576;BME280;41437;45.478;9.116;2022-07-12T09:22:15;100271.03;;;29.78;37.40
55576;BME280;41437;45.478;9.116;2022-07-12T09:25:17;100266.16;;;29.79;37.34
55576;BME280;41437;45.478;9.116;2022-07-12T09:28:18;100273.47;;;29.80;37.36
55576;BME280;41437;45.478;9.116;2022-07-12T09:31:21;100273.09;;;29.82;37.41
55576;BME280;41437;45.478;9.116;2022-07-12T09:34:23;100276.38;;;29.84;37.28
55576;BME280;41437;45.478;9.116;2022-07-12T09:37:41;100284.53;;;29.85;37.36
55576;BME280;41437;45.478;9.116;2022-07-12T09:40:43;100265.09;;;29.87;37.52
55576;BME280;41437;45.478;9.116;2022-07-12T09:43:45;100272.41;;;29.88;37.47
55576;BME280;41437;45.478;9.116;2022-07-12T09:46:48;100269.97;;;29.90;37.38
55576;BME280;41437;45.478;9.116;2022-07-12T09:49:49;100277.75;;;29.93;37.50
55576;BME280;41437;45.478;9.116;2022-07-12T09:52:52;100270.88;;;29.94;37.71
55576;BME280;41437;45.478;9.116;2022-07-12T09:55:55;100267.66;;;29.96;37.55
55576;BME280;41437;45.478;9.116;2022-07-12T09:58:57;100270.09;;;29.97;37.60
55576;BME280;41437;45.478;9.116;2022-07-12T10:02:00;100272.56;;;29.99;37.57
55576;BME280;41437;45.478;9.116;2022-07-12T10:05:04;100274.22;;;30.00;37.61
55576;BME280;41437;45.478;9.116;2022-07-12T10:08:06;100273.00;;;30.01;37.57
55576;BME280;41437;45.478;9.116;2022-07-12T10:11:08;100268.56;;;30.03;37.67
55576;BME280;41437;45.478;9.116;2022-07-12T10:14:10;100264.16;;;30.06;37.57
55576;BME280;41437;45.478;9.116;2022-07-12T10:17:13;100256.06;;;30.08;37.54
55576;BME280;41437;45.478;9.116;2022-07-12T10:20:23;100251.63;;;30.11;37.68
55576;BME280;41437;45.478;9.116;2022-07-12T10:23:27;100248.41;;;30.12;37.73
55576;BME280;41437;45.478;9.116;2022-07-12T10:26:36;100247.66;;;30.15;37.71
55576;BME280;41437;45.478;9.116;2022-07-12T10:29:42;100241.59;;;30.17;37.87
55576;BME280;41437;45.478;9.116;2022-07-12T10:32:45;100236.41;;;30.22;37.78
55576;BME280;41437;45.478;9.116;2022-07-12T10:35:57;100241.72;;;30.24;37.90
55576;BME280;41437;45.478;9.116;2022-07-12T10:39:10;100242.16;;;30.26;37.79
55576;BME280;41437;45.478;9.116;2022-07-12T10:42:12;100234.88;;;30.28;37.90
55576;BME280;41437;45.478;9.116;2022-07-12T10:45:14;100241.81;;;30.31;37.83
55576;BME280;41437;45.478;9.116;2022-07-12T10:48:22;100242.22;;;30.33;37.87
55576;BME280;41437;45.478;9.116;2022-07-12T10:51:24;100235.78;;;30.36;38.06
55576;BME280;41437;45.478;9.116;2022-07-12T10:54:25;100244.72;;;30.38;37.83
55576;BME280;41437;45.478;9.116;2022-07-12T10:57:37;100227.31;;;30.40;37.90
55576;BME280;41437;45.478;9.116;2022-07-12T11:00:38;100235.91;;;30.43;37.94
55576;BME280;41437;45.478;9.116;2022-07-12T11:03:42;100225.34;;;30.47;37.81
55576;BME280;41437;45.478;9.116;2022-07-12T11:06:44;100230.28;;;30.50;37.93
55576;BME280;41437;45.478;9.116;2022-07-12T11:09:45;100229.91;;;30.52;38.01
55576;BME280;41437;45.478;9.116;2022-07-12T11:12:52;100224.25;;;30.55;37.93
55576;BME280;41437;45.478;9.116;2022-07-12T11:15:56;100219.00;;;30.58;37.90
55576;BME280;41437;45.478;9.116;2022-07-12T11:18:59;100222.25;;;30.60;37.98
55576;BME280;41437;45.478;9.116;2022-07-12T11:22:01;100215.81;;;30.63;37.91
55576;BME280;41437;45.478;9.116;2022-07-12T11:25:03;100209.34;;;30.66;37.85
55576;BME280;41437;45.478;9.116;2022-07-12T11:28:05;100202.88;;;30.69;37.88
55576;BME280;41437;45.478;9.116;2022-07-12T11:31:07;100204.97;;;30.72;37.86
55576;BME280;41437;45.478;9.116;2022-07-12T11:34:20;100207.06;;;30.75;37.91
55576;BME280;41437;45.478;9.116;2022-07-12T11:37:22;100207.09;;;30.78;37.90
55576;BME280;41437;45.478;9.116;2022-07-12T11:40:24;100203.44;;;30.82;37.84
55576;BME280;41437;45.478;9.116;2022-07-12T11:43:26;100208.38;;;30.85;37.95
55576;BME280;41437;45.478;9.116;2022-07-12T11:46:27;100205.56;;;30.88;37.99
55576;BME280;41437;45.478;9.116;2022-07-12T11:49:30;100200.75;;;30.92;37.82
55576;BME280;41437;45.478;9.116;2022-07-12T11:52:34;100205.25;;;30.97;37.67
55576;BME280;41437;45.478;9.116;2022-07-12T11:55:40;100202.00;;;30.98;37.79
55576;BME280;41437;45.478;9.116;2022-07-12T11:58:54;100205.31;;;31.04;37.79
55576;BME280;41437;45.478;9.116;2022-07-12T12:02:02;100196.81;;;31.08;37.67
55576;BME280;41437;45.478;9.116;2022-07-12T12:05:06;100189.94;;;31.09;37.67
55576;BME280;41437;45.478;9.116;2022-07-12T12:08:08;100185.88;;;31.10;37.67
55576;BME280;41437;45.478;9.116;2022-07-12T12:11:11;100198.94;;;31.14;37.78
55576;BME280;41437;45.478;9.116;2022-07-12T12:14:12;100185.56;;;31.18;37.66
55576;BME280;41437;45.478;9.116;2022-07-12T12:17:14;100190.44;;;31.21;37.52
55576;BME280;41437;45.478;9.116;2022-07-12T12:20:17;100177.06;;;31.25;37.54
55576;BME280;41437;45.478;9.116;2022-07-12T12:23:19;100176.31;;;31.28;37.55
55576;BME280;41437;45.478;9.116;2022-07-12T12:26:21;100168.63;;;31.33;37.54
55576;BME280;41437;45.478;9.116;2022-07-12T12:29:39;100170.28;;;31.37;37.76
55576;BME280;41437;45.478;9.116;2022-07-12T12:32:47;100150.38;;;31.41;37.51
55576;BME280;41437;45.478;9.116;2022-07-12T12:35:51;100160.59;;;31.45;37.59
55576;BME280;41437;45.478;9.116;2022-07-12T12:38:53;100155.31;;;31.47;37.69
55576;BME280;41437;45.478;9.116;2022-07-12T12:41:54;100154.09;;;31.52;37.64
55576;BME280;41437;45.478;9.116;2022-07-12T12:44:56;100155.81;;;31.57;37.36
55576;BME280;41437;45.478;9.116;2022-07-12T12:47:58;100142.38;;;31.61;37.36
55576;BME280;41437;45.478;9.116;2022-07-12T12:51:05;100137.94;;;31.63;37.53
55576;BME280;41437;45.478;9.116;2022-07-12T12:54:07;100142.03;;;31.66;37.52
55576;BME280;41437;45.478;9.116;2022-07-12T12:57:09;100139.63;;;31.71;37.32
55576;BME280;41437;45.478;9.116;2022-07-12T13:00:11;100127.81;;;31.73;37.50
55576;BME280;41437;45.478;9.116;2022-07-12T13:03:13;100133.97;;;31.78;37.50
55576;BME280;41437;45.478;9.116;2022-07-12T13:06:17;100125.81;;;31.81;37.44
55576;BME280;41437;45.478;9.116;2022-07-12T13:09:18;100123.03;;;31.84;37.56
55576;BME280;41437;45.478;9.116;2022-07-12T13:12:22;100118.56;;;31.87;37.24
55576;BME280;41437;45.478;9.116;2022-07-12T13:15:23;100118.97;;;31.89;37.29
55576;BME280;41437;45.478;9.116;2022-07-12T13:18:25;100121.84;;;31.92;37.29
55576;BME280;41437;45.478;9.116;2022-07-12T13:21:28;100113.34;;;31.96;37.39
55576;BME280;41437;45.478;9.116;2022-07-12T13:24:30;100100.72;;;32.00;37.38
55576;BME280;41437;45.478;9.116;2022-07-12T13:27:31;100105.22;;;32.01;37.28
55576;BME280;41437;45.478;9.116;2022-07-12T13:30:33;100104.00;;;32.06;37.08
55576;BME280;41437;45.478;9.116;2022-07-12T13:33:34;100102.38;;;32.09;37.18
55576;BME280;41437;45.478;9.116;2022-07-12T13:36:37;100102.00;;;32.14;37.35
55576;BME280;41437;45.478;9.116;2022-07-12T13:39:39;100091.81;;;32.16;37.14
55576;BME280;41437;45.478;9.116;2022-07-12T13:42:58;100083.69;;;32.18;37.09
55576;BME280;41437;45.478;9.116;2022-07-12T13:45:59;100079.63;;;32.23;37.07
55576;BME280;41437;45.478;9.116;2022-07-12T13:49:01;100074.75;;;32.27;37.17
55576;BME280;41437;45.478;9.116;2022-07-12T13:52:04;100079.63;;;32.30;37.19
55576;BME280;41437;45.478;9.116;2022-07-12T13:55:06;100078.03;;;32.33;36.98
55576;BME280;41437;45.478;9.116;2022-07-12T13:58:07;100069.50;;;32.36;36.78
55576;BME280;41437;45.478;9.116;2022-07-12T14:01:09;100070.72;;;32.39;37.00
55576;BME280;41437;45.478;9.116;2022-07-12T14:04:10;100063.41;;;32.41;36.96
55576;BME280;41437;45.478;9.116;2022-07-12T14:07:13;100060.97;;;32.43;36.76
55576;BME280;41437;45.478;9.116;2022-07-12T14:10:15;100064.25;;;32.45;36.85
55576;BME280;41437;45.478;9.116;2022-07-12T14:13:16;100048.38;;;32.48;36.80
55576;BME280;41437;45.478;9.116;2022-07-12T14:16:18;100044.31;;;32.52;36.81
55576;BME280;41437;45.478;9.116;2022-07-12T14:19:19;100049.16;;;32.56;36.78
55576;BME280;41437;45.478;9.116;2022-07-12T14:22:22;100044.72;;;32.58;36.92
55576;BME280;41437;45.478;9.116;2022-07-12T14:25:24;100049.59;;;32.61;36.52
55576;BME280;41437;45.478;9.116;2022-07-12T14:28:25;100048.38;;;32.66;36.74
55576;BME280;41437;45.478;9.116;2022-07-12T14:31:27;100046.34;;;32.66;36.67
55576;BME280;41437;45.478;9.116;2022-07-12T14:34:28;100052.06;;;32.70;36.56
55576;BME280;41437;45.478;9.116;2022-07-12T14:37:31;100050.41;;;32.72;36.69
55576;BME280;41437;45.478;9.116;2022-07-12T14:40:32;100056.94;;;32.76;36.69
55576;BME280;41437;45.478;9.116;2022-07-12T14:43:34;100049.19;;;32.81;36.42
55576;BME280;41437;45.478;9.116;2022-07-12T14:46:36;100042.25;;;32.82;36.60
55576;BME280;41437;45.478;9.116;2022-07-12T14:49:39;100046.34;;;32.84;36.46
55576;BME280;41437;45.478;9.116;2022-07-12T14:52:42;100035.34;;;32.86;36.45
55576;BME280;41437;45.478;9.116;2022-07-12T14:55:43;100029.25;;;32.88;36.33
55576;BME280;41437;45.478;9.116;2022-07-12T14:58:46;100024.72;;;32.90;36.41
55576;BME280;41437;45.478;9.116;2022-07-12T15:01:48;100021.09;;;32.93;36.37
55576;BME280;41437;45.478;9.116;2022-07-12T15:04:49;100024.34;;;32.95;36.31
55576;BME280;41437;45.478;9.116;2022-07-12T15:07:52;100033.72;;;32.99;36.39
55576;BME280;41437;45.478;9.116;2022-07-12T15:10:54;100022.72;;;33.01;36.23
55576;BME280;41437;45.478;9.116;2022-07-12T15:13:56;100023.94;;;33.04;36.35
55576;BME280;41437;45.478;9.116;2022-07-12T15:16:57;100015.38;;;33.08;36.31
55576;BME280;41437;45.478;9.116;2022-07-12T15:19:58;100006.41;;;33.09;36.31
55576;BME280;41437;45.478;9.116;2022-07-12T15:23:01;100009.66;;;33.11;36.28
55576;BME280;41437;45.478;9.116;2022-07-12T15:26:03;100001.09;;;33.11;36.24
55576;BME280;41437;45.478;9.116;2022-07-12T15:29:05;100000.28;;;33.14;36.20
55576;BME280;41437;45.478;9.116;2022-07-12T15:32:07;99987.63;;;33.15;36.12
55576;BME280;41437;45.478;9.116;2022-07-12T15:35:08;99979.44;;;33.17;36.26
55576;BME280;41437;45.478;9.116;2022-07-12T15:38:11;99987.63;;;33.19;36.24
55576;BME280;41437;45.478;9.116;2022-07-12T15:41:13;99977.41;;;33.21;36.09
55576;BME280;41437;45.478;9.116;2022-07-12T15:44:14;99970.50;;;33.22;35.96
55576;BME280;41437;45.478;9.116;2022-07-12T15:47:17;99974.53;;;33.25;35.96
55576;BME280;41437;45.478;9.116;2022-07-12T15:50:19;99970.47;;;33.26;35.77
55576;BME280;41437;45.478;9.116;2022-07-12T15:53:22;99972.13;;;33.27;36.02
55576;BME280;41437;45.478;9.116;2022-07-12T15:56:27;99973.72;;;33.28;36.06